Time;durP1;ratioP1;P1;durP2;ratioP2;P2;SDS_P1;SDS_P2;PMS_P1;PMS_P2;Temp;Humidity;BMP_temperature;BMP_pressure;BME280_temperature;BME280_humidity;BME280_pressure;Samples;Min_cycle;Max_cycle;Signal;HPM_P1;HPM_P2
2023/08/02 00:01:11;;;;;;;5.00;3.03;;;;;;;;;;4953787;29;20190;-66
2023/08/02 00:03:38;;;;;;;6.10;3.20;;;;;;;;;;4953483;29;20257;-66
2023/08/02 00:06:04;;;;;;;5.33;3.00;;;;;;;;;;4953339;29;20183;-67
2023/08/02 00:08:31;;;;;;;3.90;3.10;;;;;;;;;;4953942;29;20190;-66
2023/08/02 00:10:58;;;;;;;6.67;3.17;;;;;;;;;;4936442;29;20182;-66
2023/08/02 00:13:25;;;;;;;4.13;3.10;;;;;;;;;;4953500;29;20213;-67
2023/08/02 00:15:54;;;;;;;6.50;2.80;;;;;;;;;;4953397;29;20175;-66
2023/08/02 00:18:21;;;;;;;4.23;2.90;;;;;;;;;;4953291;29;20689;-67
2023/08/02 00:20:48;;;;;;;4.90;2.90;;;;;;;;;;4953744;29;20249;-67
2023/08/02 00:23:15;;;;;;;6.73;3.00;;;;;;;;;;4953155;29;20542;-66
2023/08/02 00:25:42;;;;;;;6.77;3.13;;;;;;;;;;4953283;29;20697;-66
2023/08/02 00:28:08;;;;;;;3.53;2.93;;;;;;;;;;4953180;29;20186;-66
2023/08/02 00:30:42;;;;;;;4.77;3.23;;;;;;;;;;4953116;29;20202;-66
2023/08/02 00:33:09;;;;;;;4.60;3.40;;;;;;;;;;4953507;29;20191;-67
2023/08/02 00:35:35;;;;;;;4.60;3.10;;;;;;;;;;4936133;29;20237;-66
2023/08/02 00:38:02;;;;;;;5.07;2.97;;;;;;;;;;4953043;29;20186;-66
2023/08/02 00:40:29;;;;;;;4.30;3.73;;;;;;;;;;4953318;29;20613;-66
2023/08/02 00:42:56;;;;;;;5.83;3.67;;;;;;;;;;4952098;29;20237;-66
2023/08/02 00:45:23;;;;;;;4.20;3.60;;;;;;;;;;4952954;29;20289;-66
2023/08/02 00:48:07;;;;;;;9.53;4.10;;;;;;;;;;4952744;28;20218;-66
2023/08/02 00:50:34;;;;;;;4.70;4.10;;;;;;;;;;4953262;29;20179;-67
2023/08/02 00:53:00;;;;;;;7.90;4.83;;;;;;;;;;4935827;29;20186;-66
2023/08/02 00:55:27;;;;;;;5.77;4.60;;;;;;;;;;4922926;29;20270;-67
2023/08/02 00:57:54;;;;;;;6.40;4.97;;;;;;;;;;4916649;29;20265;-66
2023/08/02 01:00:21;;;;;;;7.33;4.87;;;;;;;;;;4933559;29;20241;-67
2023/08/02 01:02:47;;;;;;;6.33;4.80;;;;;;;;;;4916379;29;20214;-66
2023/08/02 01:05:14;;;;;;;6.33;4.80;;;;;;;;;;4932129;29;20222;-67
2023/08/02 01:07:58;;;;;;;5.60;4.90;;;;;;;;;;4933389;29;20198;-66
2023/08/02 01:10:26;;;;;;;9.00;5.60;;;;;;;;;;4900789;29;20205;-66
2023/08/02 01:44:43;;;;;;;7.47;5.43;;;;;;;;;;4933874;29;20253;-66
2023/08/02 01:47:10;;;;;;;9.33;5.47;;;;;;;;;;4932781;29;20726;-66
2023/08/02 01:49:37;;;;;;;6.00;5.40;;;;;;;;;;4933652;29;20207;-67
2023/08/02 01:52:04;;;;;;;6.33;5.27;;;;;;;;;;4931414;29;20195;-67
2023/08/02 01:54:31;;;;;;;6.60;5.40;;;;;;;;;;4921296;29;20190;-66
2023/08/02 01:56:58;;;;;;;5.73;5.13;;;;;;;;;;4951775;29;20235;-66
2023/08/02 01:59:24;;;;;;;8.60;4.87;;;;;;;;;;4934804;29;20194;-66
2023/08/02 02:01:51;;;;;;;6.03;4.33;;;;;;;;;;4934645;29;20198;-67
2023/08/02 02:04:18;;;;;;;5.57;4.90;;;;;;;;;;4951716;29;20558;-66
2023/08/02 02:06:45;;;;;;;8.30;5.53;;;;;;;;;;4953149;29;20183;-66
2023/08/02 02:09:12;;;;;;;8.60;4.97;;;;;;;;;;4951922;29;20193;-66
2023/08/02 02:11:39;;;;;;;6.87;4.73;;;;;;;;;;4951679;28;20562;-66
2023/08/02 02:14:05;;;;;;;10.30;5.13;;;;;;;;;;4951608;28;20658;-66
2023/08/02 02:16:49;;;;;;;5.30;4.57;;;;;;;;;;4951342;29;20166;-67
2023/08/02 02:19:16;;;;;;;7.63;5.30;;;;;;;;;;4934168;29;20226;-67
2023/08/02 02:21:43;;;;;;;6.30;5.13;;;;;;;;;;4950226;29;20194;-66
2023/08/02 02:24:09;;;;;;;5.83;4.80;;;;;;;;;;4934677;29;20297;-66
2023/08/02 02:26:36;;;;;;;6.07;5.07;;;;;;;;;;4951583;28;20680;-67
2023/08/02 02:29:03;;;;;;;7.70;4.90;;;;;;;;;;4952790;29;20225;-66
2023/08/02 02:31:30;;;;;;;5.40;4.63;;;;;;;;;;4952430;29;20202;-66
2023/08/02 02:33:56;;;;;;;5.73;4.83;;;;;;;;;;4950151;29;20221;-66
2023/08/02 02:36:43;;;;;;;6.57;4.80;;;;;;;;;;4950317;29;20181;-66
2023/08/02 02:39:10;;;;;;;5.33;4.57;;;;;;;;;;4949693;29;20294;-66
2023/08/02 02:41:37;;;;;;;6.80;5.40;;;;;;;;;;4950274;28;20203;-67
2023/08/02 02:44:04;;;;;;;5.83;4.90;;;;;;;;;;4950077;29;20190;-66
2023/08/02 02:46:30;;;;;;;5.77;4.90;;;;;;;;;;4951037;29;20241;-67
2023/08/02 02:49:15;;;;;;;5.47;4.60;;;;;;;;;;4951210;29;20192;-66
2023/08/02 02:51:41;;;;;;;7.03;5.30;;;;;;;;;;4951050;29;20660;-66
2023/08/02 02:54:08;;;;;;;5.30;4.40;;;;;;;;;;4948533;29;20179;-66
2023/08/02 02:56:35;;;;;;;5.60;4.17;;;;;;;;;;4899441;29;20195;-67
2023/08/02 02:59:02;;;;;;;4.90;3.93;;;;;;;;;;4931739;29;20294;-67
2023/08/02 03:01:28;;;;;;;5.67;3.87;;;;;;;;;;4932122;29;20191;-67
2023/08/02 03:03:55;;;;;;;3.90;3.60;;;;;;;;;;4931918;29;20195;-66
2023/08/02 03:06:22;;;;;;;6.07;3.70;;;;;;;;;;4931836;29;20224;-66
2023/08/02 03:09:06;;;;;;;5.97;3.93;;;;;;;;;;4932190;29;20539;-66
2023/08/02 03:11:32;;;;;;;4.40;3.33;;;;;;;;;;4915100;29;20516;-66
2023/08/02 03:14:00;;;;;;;3.77;3.40;;;;;;;;;;4931779;29;20647;-67
2023/08/02 03:16:27;;;;;;;4.77;3.50;;;;;;;;;;4932085;29;20884;-66
2023/08/02 03:18:54;;;;;;;4.23;3.30;;;;;;;;;;4931674;29;20201;-66
2023/08/02 03:21:21;;;;;;;4.10;3.63;;;;;;;;;;4914792;29;20187;-66
2023/08/02 03:23:47;;;;;;;4.57;3.57;;;;;;;;;;4932290;29;20599;-66
2023/08/02 03:26:14;;;;;;;4.23;3.30;;;;;;;;;;4935041;29;20215;-67
2023/08/02 03:28:41;;;;;;;4.37;3.63;;;;;;;;;;4934903;29;20191;-66
2023/08/02 03:31:07;;;;;;;3.80;3.10;;;;;;;;;;4918363;29;20183;-66
2023/08/02 03:33:34;;;;;;;8.67;3.60;;;;;;;;;;4935069;29;20186;-67
2023/08/02 03:36:01;;;;;;;3.77;3.00;;;;;;;;;;4935009;29;20666;-67
2023/08/02 03:38:27;;;;;;;4.87;3.00;;;;;;;;;;4935314;29;20199;-67
2023/08/02 03:40:56;;;;;;;3.07;2.77;;;;;;;;;;4935097;29;20191;-67
2023/08/02 03:43:25;;;;;;;3.53;2.90;;;;;;;;;;4934910;29;20171;-67
2023/08/02 03:45:52;;;;;;;4.43;3.13;;;;;;;;;;4934982;29;20207;-67
2023/08/02 03:48:20;;;;;;;3.63;2.67;;;;;;;;;;4934561;29;20602;-68
2023/08/02 03:50:47;;;;;;;3.93;2.50;;;;;;;;;;4934968;29;20178;-68
2023/08/02 03:53:14;;;;;;;4.43;2.50;;;;;;;;;;4934824;29;20195;-68
2023/08/02 03:55:40;;;;;;;3.17;2.10;;;;;;;;;;4949258;29;20265;-67
2023/08/02 03:58:07;;;;;;;3.90;2.30;;;;;;;;;;4953910;29;20208;-67
2023/08/02 04:00:34;;;;;;;3.47;2.87;;;;;;;;;;4953717;29;20167;-67
2023/08/02 04:03:01;;;;;;;3.10;2.20;;;;;;;;;;4953658;29;20225;-67
2023/08/02 04:05:27;;;;;;;3.47;2.23;;;;;;;;;;4953966;29;20221;-67
2023/08/02 04:07:54;;;;;;;2.60;2.20;;;;;;;;;;4952694;28;20558;-67
2023/08/02 04:10:21;;;;;;;3.27;2.27;;;;;;;;;;4953618;29;20182;-67
2023/08/02 04:13:04;;;;;;;2.30;2.07;;;;;;;;;;4953620;29;20163;-67
2023/08/02 04:15:34;;;;;;;3.60;2.30;;;;;;;;;;4953405;29;20197;-67
2023/08/02 04:18:01;;;;;;;3.67;2.20;;;;;;;;;;4953546;29;20189;-67
2023/08/02 04:20:27;;;;;;;5.17;2.30;;;;;;;;;;4936886;29;20736;-67
2023/08/02 04:22:54;;;;;;;3.87;2.33;;;;;;;;;;4937713;29;20621;-67
2023/08/02 04:25:38;;;;;;;4.80;2.70;;;;;;;;;;4953278;29;20252;-67
2023/08/02 04:28:05;;;;;;;5.23;2.50;;;;;;;;;;4953575;29;20204;-67
2023/08/02 04:30:50;;;;;;;3.30;2.60;;;;;;;;;;4939208;29;20177;-67
2023/08/02 04:33:17;;;;;;;4.83;2.73;;;;;;;;;;4953546;29;20190;-67
2023/08/02 04:35:44;;;;;;;5.10;2.73;;;;;;;;;;4952726;28;20300;-67
2023/08/02 04:38:10;;;;;;;4.77;2.57;;;;;;;;;;4953082;29;20237;-67
2023/08/02 04:40:37;;;;;;;3.33;2.83;;;;;;;;;;4952904;29;20186;-67
2023/08/02 04:43:04;;;;;;;3.57;3.17;;;;;;;;;;4952874;29;20175;-68
2023/08/02 04:45:31;;;;;;;7.00;2.90;;;;;;;;;;4953069;29;21092;-67
2023/08/02 04:47:58;;;;;;;6.03;3.00;;;;;;;;;;4954275;29;20245;-67
2023/08/02 04:50:24;;;;;;;3.70;2.70;;;;;;;;;;4954294;29;20174;-66
2023/08/02 04:52:51;;;;;;;6.47;2.90;;;;;;;;;;4952778;29;20261;-67
2023/08/02 04:55:18;;;;;;;5.70;2.77;;;;;;;;;;4940667;29;20201;-67
2023/08/02 04:57:45;;;;;;;8.30;2.67;;;;;;;;;;4933769;29;20198;-66
2023/08/02 05:00:11;;;;;;;3.87;2.67;;;;;;;;;;4933541;29;20199;-66
2023/08/02 05:02:38;;;;;;;5.13;2.80;;;;;;;;;;4933742;29;20179;-67
2023/08/02 05:05:23;;;;;;;4.33;2.53;;;;;;;;;;4933509;29;20191;-67
2023/08/02 05:07:50;;;;;;;4.03;2.60;;;;;;;;;;4933545;29;20187;-66
2023/08/02 05:10:17;;;;;;;3.00;2.40;;;;;;;;;;4933584;29;20191;-66
2023/08/02 05:12:43;;;;;;;3.83;2.80;;;;;;;;;;4933297;29;20179;-67
2023/08/02 05:15:10;;;;;;;4.50;2.70;;;;;;;;;;4933311;29;20191;-66
2023/08/02 05:17:37;;;;;;;4.63;2.90;;;;;;;;;;4933670;29;20194;-67
2023/08/02 05:20:04;;;;;;;5.47;2.60;;;;;;;;;;4933085;29;20242;-67
2023/08/02 05:22:31;;;;;;;5.00;2.80;;;;;;;;;;4933290;29;20179;-66
2023/08/02 05:24:58;;;;;;;4.70;2.63;;;;;;;;;;4932898;29;20227;-66
2023/08/02 05:27:25;;;;;;;5.47;2.60;;;;;;;;;;4932874;29;20202;-66
2023/08/02 05:29:51;;;;;;;4.90;2.63;;;;;;;;;;4916267;29;20317;-66
2023/08/02 05:32:35;;;;;;;3.37;2.60;;;;;;;;;;4933381;29;20261;-66
2023/08/02 05:35:03;;;;;;;4.27;2.33;;;;;;;;;;4933192;29;20186;-66
2023/08/02 05:37:47;;;;;;;4.83;2.63;;;;;;;;;;4933193;29;20171;-66
2023/08/02 05:40:14;;;;;;;3.10;2.70;;;;;;;;;;4932827;29;20550;-66
2023/08/02 05:42:40;;;;;;;4.27;2.67;;;;;;;;;;4932985;29;20587;-66
2023/08/02 05:45:07;;;;;;;4.83;2.90;;;;;;;;;;4932696;29;20202;-67
2023/08/02 05:47:34;;;;;;;5.73;2.50;;;;;;;;;;4932860;29;20254;-66
2023/08/02 05:50:18;;;;;;;3.93;2.57;;;;;;;;;;4916867;29;20171;-67
2023/08/02 05:52:45;;;;;;;5.77;2.40;;;;;;;;;;4934379;29;20246;-66
2023/08/02 05:55:29;;;;;;;3.70;2.83;;;;;;;;;;4945415;29;20713;-66
2023/08/02 05:57:55;;;;;;;6.07;2.70;;;;;;;;;;4951446;29;20204;-66
2023/08/02 06:00:40;;;;;;;3.40;2.73;;;;;;;;;;4951515;29;20522;-66
2023/08/02 06:03:06;;;;;;;6.00;2.77;;;;;;;;;;4951767;29;20190;-66
2023/08/02 06:05:33;;;;;;;3.90;2.93;;;;;;;;;;4951690;29;20748;-66
2023/08/02 06:08:00;;;;;;;3.63;3.10;;;;;;;;;;4951401;29;20224;-66
2023/08/02 06:10:27;;;;;;;5.77;3.10;;;;;;;;;;4951581;29;20542;-67
2023/08/02 06:12:53;;;;;;;5.20;3.70;;;;;;;;;;4951761;29;20185;-67
2023/08/02 06:15:20;;;;;;;4.63;3.50;;;;;;;;;;4950097;28;20692;-67
2023/08/02 06:17:47;;;;;;;4.70;3.13;;;;;;;;;;4951908;29;20218;-66
2023/08/02 06:20:13;;;;;;;4.37;3.50;;;;;;;;;;4951257;29;20179;-67
2023/08/02 06:22:41;;;;;;;5.87;3.63;;;;;;;;;;4951325;29;20281;-67
2023/08/02 06:25:08;;;;;;;4.50;3.07;;;;;;;;;;4951588;29;20634;-67
2023/08/02 06:27:35;;;;;;;5.17;2.87;;;;;;;;;;4949697;29;20284;-67
2023/08/02 06:30:02;;;;;;;3.73;3.30;;;;;;;;;;4951174;29;20264;-67
2023/08/02 06:32:29;;;;;;;3.90;2.60;;;;;;;;;;4951443;29;20281;-66
2023/08/02 06:35:13;;;;;;;2.70;2.50;;;;;;;;;;4950101;28;20189;-66
2023/08/02 06:37:39;;;;;;;6.50;2.80;;;;;;;;;;4951266;28;20198;-66
2023/08/02 06:40:23;;;;;;;3.43;2.70;;;;;;;;;;4951397;29;20170;-66
2023/08/02 06:42:50;;;;;;;3.83;2.50;;;;;;;;;;4951104;29;20206;-66
2023/08/02 06:45:37;;;;;;;3.40;2.10;;;;;;;;;;4951189;29;20998;-66
2023/08/02 06:48:05;;;;;;;4.33;2.53;;;;;;;;;;4951084;29;20593;-66
2023/08/02 06:50:35;;;;;;;4.17;2.50;;;;;;;;;;4951450;28;20300;-67
2023/08/02 06:53:02;;;;;;;2.40;2.07;;;;;;;;;;4949962;28;20531;-66
2023/08/02 06:55:28;;;;;;;5.47;2.77;;;;;;;;;;4937888;29;20191;-66
2023/08/02 06:58:12;;;;;;;4.70;2.57;;;;;;;;;;4931923;29;20269;-66
2023/08/02 07:00:39;;;;;;;2.37;2.10;;;;;;;;;;4935066;29;20187;-66
2023/08/02 07:03:06;;;;;;;2.87;2.10;;;;;;;;;;4936629;29;20214;-66
2023/08/02 07:05:34;;;;;;;2.80;2.37;;;;;;;;;;4936826;29;20209;-66
2023/08/02 07:08:01;;;;;;;2.93;2.13;;;;;;;;;;4936638;29;20195;-66
2023/08/02 07:10:28;;;;;;;4.37;2.20;;;;;;;;;;4935421;29;20225;-66
2023/08/02 07:12:55;;;;;;;5.13;2.47;;;;;;;;;;4934977;29;20277;-67
2023/08/02 07:15:22;;;;;;;4.60;2.30;;;;;;;;;;4935322;29;20194;-66
2023/08/02 07:17:49;;;;;;;5.17;2.20;;;;;;;;;;4935818;29;20213;-66
2023/08/02 07:20:19;;;;;;;2.80;2.10;;;;;;;;;;4935240;29;20269;-67
2023/08/02 07:22:46;;;;;;;7.00;2.50;;;;;;;;;;4934982;29;20209;-67
2023/08/02 07:25:30;;;;;;;2.87;2.20;;;;;;;;;;4935281;29;20207;-67
2023/08/02 07:27:57;;;;;;;2.23;2.00;;;;;;;;;;4935154;29;20195;-66
2023/08/02 07:30:41;;;;;;;5.67;2.30;;;;;;;;;;4917959;29;20182;-67
2023/08/02 07:33:08;;;;;;;2.57;1.70;;;;;;;;;;4934970;29;20195;-66
2023/08/02 07:35:36;;;;;;;1.80;1.50;;;;;;;;;;4935167;29;20294;-66
2023/08/02 07:38:04;;;;;;;2.37;1.40;;;;;;;;;;4934906;29;20194;-67
2023/08/02 07:40:31;;;;;;;4.67;1.63;;;;;;;;;;4934787;29;20203;-66
2023/08/02 07:42:58;;;;;;;4.37;1.50;;;;;;;;;;4934863;29;20197;-67
2023/08/02 07:45:25;;;;;;;4.07;1.60;;;;;;;;;;4917476;29;20194;-66
2023/08/02 07:47:51;;;;;;;3.00;1.40;;;;;;;;;;4934823;29;20239;-67
2023/08/02 07:50:18;;;;;;;2.53;1.23;;;;;;;;;;4934941;29;20281;-67
2023/08/02 07:52:45;;;;;;;2.77;1.50;;;;;;;;;;4917774;29;20199;-67
2023/08/02 07:55:11;;;;;;;5.73;1.50;;;;;;;;;;4945854;29;20292;-66
2023/08/02 07:57:38;;;;;;;3.93;1.27;;;;;;;;;;4953780;29;20190;-66
2023/08/02 08:00:05;;;;;;;4.80;1.50;;;;;;;;;;4953678;29;20182;-66
2023/08/02 08:02:38;;;;;;;2.40;1.20;;;;;;;;;;4953821;29;20654;-67
2023/08/02 08:05:05;;;;;;;2.73;1.30;;;;;;;;;;4953649;29;20167;-67
2023/08/02 08:07:32;;;;;;;2.60;1.20;;;;;;;;;;4953280;29;20218;-67
2023/08/02 08:09:58;;;;;;;3.43;1.30;;;;;;;;;;4953349;28;20280;-67
2023/08/02 08:12:25;;;;;;;4.73;1.33;;;;;;;;;;4953285;29;20205;-66
2023/08/02 08:14:52;;;;;;;2.93;1.40;;;;;;;;;;4953356;29;20182;-67
2023/08/02 08:17:19;;;;;;;2.83;1.47;;;;;;;;;;4953500;29;20937;-67
2023/08/02 08:20:03;;;;;;;4.30;1.30;;;;;;;;;;4953254;29;20269;-67
2023/08/02 08:22:30;;;;;;;2.97;1.67;;;;;;;;;;4953250;28;20194;-67
2023/08/02 08:25:14;;;;;;;4.03;1.30;;;;;;;;;;4953098;29;20264;-67
2023/08/02 08:27:41;;;;;;;2.13;1.43;;;;;;;;;;4952932;29;20228;-66
2023/08/02 08:30:26;;;;;;;2.97;1.60;;;;;;;;;;4953117;29;20175;-67
2023/08/02 08:32:53;;;;;;;1.93;1.20;;;;;;;;;;4953094;29;20197;-66
2023/08/02 08:35:37;;;;;;;3.03;1.40;;;;;;;;;;4953490;29;20176;-66
2023/08/02 08:38:04;;;;;;;3.43;1.73;;;;;;;;;;4952626;29;20190;-66
2023/08/02 08:40:49;;;;;;;3.77;1.63;;;;;;;;;;4952895;29;20185;-66
2023/08/02 08:43:16;;;;;;;2.33;1.80;;;;;;;;;;4952771;29;20186;-66
2023/08/02 08:46:00;;;;;;;2.97;1.50;;;;;;;;;;4938337;29;20202;-66
2023/08/02 08:48:30;;;;;;;2.57;1.87;;;;;;;;;;4952607;28;20804;-66
2023/08/02 08:50:57;;;;;;;3.70;1.77;;;;;;;;;;4953206;29;20598;-66
2023/08/02 08:53:33;;;;;;;2.30;1.60;;;;;;;;;;4919572;29;20194;-66
2023/08/02 08:56:01;;;;;;;7.93;1.80;;;;;;;;;;4935193;29;20198;-66
2023/08/02 08:58:27;;;;;;;2.27;1.60;;;;;;;;;;4933347;29;20194;-66
2023/08/02 09:00:54;;;;;;;3.40;1.97;;;;;;;;;;4916207;29;20603;-66
2023/08/02 09:03:21;;;;;;;3.53;1.90;;;;;;;;;;4933211;29;20198;-66
2023/08/02 09:05:48;;;;;;;3.13;1.90;;;;;;;;;;4933510;29;20262;-67
2023/08/02 09:08:15;;;;;;;3.10;1.80;;;;;;;;;;4933569;29;20274;-67
2023/08/02 09:10:42;;;;;;;5.50;1.73;;;;;;;;;;4931646;29;20250;-67
2023/08/02 09:13:19;;;;;;;2.53;2.00;;;;;;;;;;4933173;29;20647;-66
2023/08/02 09:15:49;;;;;;;3.23;2.00;;;;;;;;;;4933462;29;20509;-66
2023/08/02 09:18:17;;;;;;;4.57;1.83;;;;;;;;;;4916323;29;20205;-67
2023/08/02 09:20:45;;;;;;;2.33;1.80;;;;;;;;;;4933404;29;20268;-67
2023/08/02 09:23:30;;;;;;;3.40;1.80;;;;;;;;;;4918559;29;20252;-67
2023/08/02 09:26:09;;;;;;;3.60;1.70;;;;;;;;;;4931855;29;20207;-66
2023/08/02 09:28:36;;;;;;;2.23;1.60;;;;;;;;;;4932683;29;20261;-67
2023/08/02 09:31:16;;;;;;;3.73;1.50;;;;;;;;;;4932937;29;20183;-66
2023/08/02 09:33:49;;;;;;;3.37;1.80;;;;;;;;;;4932707;29;20218;-66
2023/08/02 09:36:22;;;;;;;4.50;1.90;;;;;;;;;;4932970;29;20179;-66
2023/08/02 09:38:55;;;;;;;1.90;1.30;;;;;;;;;;4933375;29;20547;-67
2023/08/02 09:41:23;;;;;;;3.63;1.70;;;;;;;;;;4932748;29;20669;-67
2023/08/02 09:44:07;;;;;;;1.63;1.17;;;;;;;;;;4932688;29;20219;-67
2023/08/02 09:46:35;;;;;;;3.80;1.47;;;;;;;;;;4932421;29;20261;-67
2023/08/02 09:49:02;;;;;;;3.23;1.20;;;;;;;;;;4932555;29;20199;-67
2023/08/02 09:51:42;;;;;;;3.93;1.47;;;;;;;;;;4915870;29;20202;-66
2023/08/02 09:54:09;;;;;;;4.30;1.10;;;;;;;;;;4934899;29;20198;-67
2023/08/02 09:56:37;;;;;;;1.63;1.40;;;;;;;;;;4951908;29;20659;-67
2023/08/02 09:59:03;;;;;;;4.77;1.57;;;;;;;;;;4951839;29;20570;-66
2023/08/02 10:01:30;;;;;;;1.80;1.20;;;;;;;;;;4951883;29;20269;-67
2023/08/02 10:03:58;;;;;;;3.13;1.43;;;;;;;;;;4950444;29;20200;-67
2023/08/02 10:06:31;;;;;;;1.47;1.13;;;;;;;;;;4951835;29;20582;-67
2023/08/02 10:08:59;;;;;;;2.50;1.10;;;;;;;;;;4935010;29;20194;-67
2023/08/02 10:11:25;;;;;;;2.27;1.03;;;;;;;;;;4934934;29;20537;-66
2023/08/02 10:13:52;;;;;;;2.90;1.03;;;;;;;;;;4951558;28;20251;-66
2023/08/02 10:16:19;;;;;;;1.00;0.87;;;;;;;;;;4951617;29;20182;-67
2023/08/02 10:18:46;;;;;;;1.43;0.90;;;;;;;;;;4951545;29;20186;-66
2023/08/02 10:21:13;;;;;;;2.00;1.00;;;;;;;;;;4934273;29;20273;-66
2023/08/02 10:23:40;;;;;;;2.97;1.00;;;;;;;;;;4952260;29;20229;-67
2023/08/02 10:26:07;;;;;;;2.10;0.97;;;;;;;;;;4952841;29;20209;-66
2023/08/02 10:28:33;;;;;;;2.27;1.07;;;;;;;;;;4952425;29;20227;-66
2023/08/02 10:31:02;;;;;;;2.33;1.07;;;;;;;;;;4951457;29;20178;-66
2023/08/02 10:33:29;;;;;;;3.13;0.93;;;;;;;;;;4934665;29;20198;-66
2023/08/02 10:35:57;;;;;;;2.30;1.00;;;;;;;;;;4955137;28;20200;-67
2023/08/02 10:38:47;;;;;;;2.10;1.00;;;;;;;;;;4955564;29;20198;-67
2023/08/02 10:41:17;;;;;;;1.90;1.10;;;;;;;;;;4955163;29;20175;-67
2023/08/02 10:44:11;;;;;;;5.43;1.23;;;;;;;;;;4954099;29;20180;-66
2023/08/02 10:46:38;;;;;;;1.77;1.30;;;;;;;;;;4938580;29;20226;-66
2023/08/02 10:49:10;;;;;;;3.13;1.00;;;;;;;;;;4955231;29;20175;-67
2023/08/02 10:51:37;;;;;;;2.90;1.03;;;;;;;;;;4955289;29;20199;-66
2023/08/02 10:54:10;;;;;;;3.03;1.00;;;;;;;;;;4953013;29;20273;-66
2023/08/02 10:56:56;;;;;;;3.03;1.10;;;;;;;;;;4936395;29;20281;-66
2023/08/02 10:59:22;;;;;;;3.43;1.20;;;;;;;;;;4935725;29;20191;-66
2023/08/02 11:01:58;;;;;;;2.57;1.03;;;;;;;;;;4935733;29;20558;-67
2023/08/02 11:04:25;;;;;;;2.33;1.10;;;;;;;;;;4935765;29;20195;-66
2023/08/02 11:07:19;;;;;;;2.80;1.00;;;;;;;;;;4935803;29;20281;-66
2023/08/02 11:09:46;;;;;;;1.70;1.13;;;;;;;;;;4935747;29;20605;-66
2023/08/02 11:12:13;;;;;;;1.73;0.90;;;;;;;;;;4935611;29;20187;-66
2023/08/02 11:14:40;;;;;;;2.53;0.90;;;;;;;;;;4935818;29;20229;-66
2023/08/02 11:17:07;;;;;;;1.90;0.70;;;;;;;;;;4935541;29;20269;-67
2023/08/02 11:19:37;;;;;;;2.13;0.83;;;;;;;;;;4935328;29;20197;-66
2023/08/02 11:22:04;;;;;;;2.30;0.83;;;;;;;;;;4935454;29;20197;-66
2023/08/02 11:24:43;;;;;;;1.33;0.70;;;;;;;;;;4935562;29;20195;-66
2023/08/02 11:27:10;;;;;;;1.53;1.10;;;;;;;;;;4935424;29;20208;-66
2023/08/02 11:29:37;;;;;;;2.53;0.73;;;;;;;;;;4918672;29;20213;-66
2023/08/02 11:32:05;;;;;;;3.97;0.87;;;;;;;;;;4935223;29;20189;-66
2023/08/02 11:34:35;;;;;;;1.33;0.90;;;;;;;;;;4934915;29;20194;-66
2023/08/02 11:37:02;;;;;;;1.30;0.80;;;;;;;;;;4935108;29;20179;-67
2023/08/02 11:39:30;;;;;;;3.77;0.93;;;;;;;;;;4918190;29;20266;-67
2023/08/02 11:42:03;;;;;;;4.07;0.80;;;;;;;;;;4935283;29;20198;-66
2023/08/02 11:44:30;;;;;;;1.40;0.80;;;;;;;;;;4918810;29;20555;-66
2023/08/02 11:46:57;;;;;;;3.13;0.90;;;;;;;;;;4932918;29;20229;-66
2023/08/02 11:49:24;;;;;;;1.30;0.80;;;;;;;;;;4917933;29;20209;-66
2023/08/02 11:51:50;;;;;;;1.03;0.73;;;;;;;;;;4934859;29;20186;-67
2023/08/02 11:54:17;;;;;;;2.00;1.17;;;;;;;;;;4938396;29;20269;-67
2023/08/02 11:56:44;;;;;;;0.80;0.80;;;;;;;;;;4953993;29;20178;-67
2023/08/02 11:59:12;;;;;;;1.37;0.90;;;;;;;;;;4937067;29;20228;-66
2023/08/02 12:01:44;;;;;;;2.07;0.83;;;;;;;;;;4920833;29;20226;-67
2023/08/02 12:04:11;;;;;;;2.07;0.73;;;;;;;;;;4953674;29;20222;-67
2023/08/02 12:06:44;;;;;;;0.90;0.80;;;;;;;;;;4936383;29;20218;-66
2023/08/02 12:09:12;;;;;;;2.80;0.90;;;;;;;;;;4953594;28;21167;-67
2023/08/02 12:11:38;;;;;;;3.93;1.00;;;;;;;;;;4954978;29;20245;-66
2023/08/02 12:14:06;;;;;;;1.87;0.80;;;;;;;;;;4955097;29;20234;-66
2023/08/02 12:16:39;;;;;;;3.30;1.07;;;;;;;;;;4954974;29;20194;-66
2023/08/02 12:19:07;;;;;;;5.50;1.10;;;;;;;;;;4954942;29;20240;-66
2023/08/02 12:21:33;;;;;;;1.43;0.70;;;;;;;;;;4955054;29;20204;-67
2023/08/02 12:24:11;;;;;;;1.90;0.93;;;;;;;;;;4954859;29;20594;-66
2023/08/02 12:26:40;;;;;;;1.90;1.00;;;;;;;;;;4954628;29;20198;-67
2023/08/02 12:29:07;;;;;;;2.57;0.90;;;;;;;;;;4953371;29;20661;-67
2023/08/02 12:31:43;;;;;;;2.83;1.00;;;;;;;;;;4952296;29;20589;-67
2023/08/02 12:34:30;;;;;;;1.13;0.80;;;;;;;;;;4953567;29;20660;-67
2023/08/02 12:36:59;;;;;;;2.13;0.93;;;;;;;;;;4953361;29;20273;-66
2023/08/02 12:39:43;;;;;;;1.63;0.80;;;;;;;;;;4953301;29;20174;-66
2023/08/02 12:42:10;;;;;;;3.33;1.07;;;;;;;;;;4935697;29;20273;-67
2023/08/02 12:44:37;;;;;;;1.60;0.80;;;;;;;;;;4952280;28;20651;-66
2023/08/02 12:47:04;;;;;;;2.07;0.90;;;;;;;;;;4952840;28;20594;-67
2023/08/02 12:49:30;;;;;;;3.63;0.90;;;;;;;;;;4953273;29;20194;-67
2023/08/02 12:51:57;;;;;;;2.00;0.80;;;;;;;;;;4952990;29;20276;-67
2023/08/02 12:54:24;;;;;;;1.67;0.93;;;;;;;;;;4948011;29;20651;-67
2023/08/02 12:56:50;;;;;;;0.70;0.63;;;;;;;;;;4933106;29;20250;-67
2023/08/02 12:59:35;;;;;;;2.93;0.70;;;;;;;;;;4933951;29;20218;-67
2023/08/02 13:02:02;;;;;;;2.43;0.80;;;;;;;;;;4933637;29;20282;-67
2023/08/02 13:04:28;;;;;;;1.40;0.70;;;;;;;;;;4933843;29;20568;-67
2023/08/02 13:06:57;;;;;;;1.93;0.90;;;;;;;;;;4933396;29;20692;-65
2023/08/02 13:09:25;;;;;;;2.20;0.80;;;;;;;;;;4933819;29;20199;-66
2023/08/02 13:12:09;;;;;;;2.13;0.90;;;;;;;;;;4933605;29;20191;-65
2023/08/02 13:14:37;;;;;;;1.07;0.50;;;;;;;;;;4917187;29;20189;-66
2023/08/02 13:17:04;;;;;;;0.63;0.60;;;;;;;;;;4933103;29;20228;-66
2023/08/02 13:19:31;;;;;;;1.97;0.83;;;;;;;;;;4933619;29;20969;-66
2023/08/02 13:21:58;;;;;;;1.57;0.80;;;;;;;;;;4933461;29;20190;-66
2023/08/02 13:24:42;;;;;;;1.53;0.80;;;;;;;;;;4933146;29;20181;-65
2023/08/02 13:27:09;;;;;;;3.87;0.87;;;;;;;;;;4933054;29;20576;-66
2023/08/02 13:29:53;;;;;;;1.43;0.90;;;;;;;;;;4933443;29;20196;-66
2023/08/02 13:32:20;;;;;;;2.67;0.90;;;;;;;;;;4933006;29;20185;-65
2023/08/02 13:34:47;;;;;;;2.80;0.80;;;;;;;;;;4933307;29;20729;-66
2023/08/02 13:37:13;;;;;;;1.67;0.70;;;;;;;;;;4932747;29;20206;-66
2023/08/02 13:39:40;;;;;;;2.43;0.90;;;;;;;;;;4932926;29;20198;-66
2023/08/02 13:42:07;;;;;;;2.20;0.83;;;;;;;;;;4932903;29;20269;-66
2023/08/02 13:44:33;;;;;;;2.27;0.90;;;;;;;;;;4933346;29;20198;-66
2023/08/02 13:47:01;;;;;;;1.60;1.00;;;;;;;;;;4932436;29;20236;-66
2023/08/02 13:49:45;;;;;;;1.70;0.80;;;;;;;;;;4932925;29;20184;-66
2023/08/02 13:52:12;;;;;;;2.20;1.07;;;;;;;;;;4932818;29;20194;-66
2023/08/02 13:54:39;;;;;;;2.37;0.90;;;;;;;;;;4939193;29;20199;-66
2023/08/02 13:57:05;;;;;;;1.07;0.70;;;;;;;;;;4951950;29;20284;-66
2023/08/02 13:59:32;;;;;;;3.97;0.93;;;;;;;;;;4952115;29;20185;-66
2023/08/02 14:02:16;;;;;;;1.87;0.60;;;;;;;;;;4951618;29;20168;-66
2023/08/02 14:04:43;;;;;;;1.70;0.90;;;;;;;;;;4951613;29;20697;-66
2023/08/02 14:07:12;;;;;;;1.77;1.03;;;;;;;;;;4951242;29;20233;-66
2023/08/02 14:09:40;;;;;;;2.00;1.07;;;;;;;;;;4951456;28;20177;-66
2023/08/02 14:12:09;;;;;;;1.57;1.30;;;;;;;;;;4951446;29;20175;-66
2023/08/02 14:14:53;;;;;;;3.13;1.00;;;;;;;;;;4937546;29;20253;-66
2023/08/02 14:17:20;;;;;;;3.27;1.00;;;;;;;;;;4950181;28;20220;-66
2023/08/02 14:20:04;;;;;;;2.13;0.80;;;;;;;;;;4951231;29;20163;-66
2023/08/02 14:22:33;;;;;;;3.63;1.33;;;;;;;;;;4951340;29;20232;-66
2023/08/02 14:25:17;;;;;;;1.80;1.10;;;;;;;;;;4951358;29;20181;-66
2023/08/02 14:27:44;;;;;;;2.23;0.97;;;;;;;;;;4933759;29;20313;-65
2023/08/02 14:30:28;;;;;;;1.70;1.20;;;;;;;;;;4951341;29;20821;-66
2023/08/02 14:32:55;;;;;;;3.47;0.93;;;;;;;;;;4951549;29;20276;-66
2023/08/02 14:35:39;;;;;;;5.23;1.07;;;;;;;;;;4951780;29;20171;-66
2023/08/02 14:38:06;;;;;;;4.77;1.20;;;;;;;;;;4951220;29;20210;-66
2023/08/02 14:40:50;;;;;;;3.90;1.00;;;;;;;;;;4951314;29;20534;-66
2023/08/02 14:43:17;;;;;;;3.77;1.00;;;;;;;;;;4951064;29;20220;-65
2023/08/02 14:45:43;;;;;;;2.73;1.23;;;;;;;;;;4951243;29;20201;-65
2023/08/02 14:48:10;;;;;;;3.37;1.20;;;;;;;;;;4950590;28;20335;-65
2023/08/02 14:50:37;;;;;;;2.07;1.03;;;;;;;;;;4951768;28;20531;-66
2023/08/02 14:53:04;;;;;;;1.60;1.10;;;;;;;;;;4934212;29;20253;-66
2023/08/02 14:55:31;;;;;;;2.53;1.20;;;;;;;;;;4920507;29;20213;-66
2023/08/02 14:57:58;;;;;;;3.60;1.20;;;;;;;;;;4931950;29;20184;-65
2023/08/02 15:00:27;;;;;;;3.47;1.30;;;;;;;;;;4932117;29;20187;-66
2023/08/02 15:02:55;;;;;;;2.30;1.30;;;;;;;;;;4931944;29;20301;-66
2023/08/02 15:05:22;;;;;;;2.63;1.40;;;;;;;;;;4932021;29;20187;-66
2023/08/02 15:07:49;;;;;;;5.67;1.40;;;;;;;;;;4931954;29;20570;-66
2023/08/02 15:10:16;;;;;;;2.40;1.57;;;;;;;;;;4914852;29;20198;-66
2023/08/02 15:12:43;;;;;;;2.67;1.50;;;;;;;;;;4931628;29;20243;-65
2023/08/02 15:15:27;;;;;;;1.97;1.40;;;;;;;;;;4931836;29;20167;-66
2023/08/02 15:17:54;;;;;;;3.77;1.53;;;;;;;;;;4916223;29;20263;-66
2023/08/02 15:20:20;;;;;;;1.20;1.10;;;;;;;;;;4933602;29;20667;-65
2023/08/02 15:22:47;;;;;;;2.33;1.43;;;;;;;;;;4935424;29;20182;-66
2023/08/02 15:25:14;;;;;;;2.00;1.40;;;;;;;;;;4935195;29;20213;-66
2023/08/02 15:27:58;;;;;;;2.57;1.30;;;;;;;;;;4935127;29;20253;-66
2023/08/02 15:30:24;;;;;;;2.30;1.50;;;;;;;;;;4935244;29;20627;-66